sensor_id;sensor_type;location;lat;lon;timestamp;P1;durP1;ratioP1;P2;durP2;ratioP2
16468;SDS011;8345;50.902;6.956;2022-11-20T00:02:21;16.67;;;13.37;;
16468;SDS011;8345;50.902;6.956;2022-11-20T00:04:48;14.67;;;12.13;;
16468;SDS011;8345;50.902;6.956;2022-11-20T00:07:16;15.93;;;12.77;;
16468;SDS011;8345;50.902;6.956;2022-11-20T00:09:43;15.00;;;13.33;;
16468;SDS011;8345;50.902;6.956;2022-11-20T00:12:10;15.70;;;12.40;;
16468;SDS011;8345;50.902;6.956;2022-11-20T00:14:39;13.30;;;11.67;;
16468;SDS011;8345;50.902;6.956;2022-11-20T00:17:07;13.93;;;11.80;;
16468;SDS011;8345;50.902;6.956;2022-11-20T00:19:34;14.30;;;12.27;;
16468;SDS011;8345;50.902;6.956;2022-11-20T00:22:01;15.50;;;12.00;;
16468;SDS011;8345;50.902;6.956;2022-11-20T00:24:28;14.03;;;11.97;;
16468;SDS011;8345;50.902;6.956;2022-11-20T00:26:56;13.53;;;11.80;;
16468;SDS011;8345;50.902;6.956;2022-11-20T00:29:23;15.37;;;12.30;;
16468;SDS011;8345;50.902;6.956;2022-11-20T00:31:51;14.23;;;11.93;;
16468;SDS011;8345;50.902;6.956;2022-11-20T00:34:18;13.73;;;11.97;;
16468;SDS011;8345;50.902;6.956;2022-11-20T00:36:46;13.53;;;11.50;;
16468;SDS011;8345;50.902;6.956;2022-11-20T00:39:13;13.07;;;11.67;;
16468;SDS011;8345;50.902;6.956;2022-11-20T00:41:40;14.17;;;12.67;;
16468;SDS011;8345;50.902;6.956;2022-11-20T00:44:07;14.97;;;12.57;;
16468;SDS011;8345;50.902;6.956;2022-11-20T00:46:34;14.07;;;12.37;;
16468;SDS011;8345;50.902;6.956;2022-11-20T00:49:03;12.63;;;11.33;;
16468;SDS011;8345;50.902;6.956;2022-11-20T00:51:30;17.20;;;12.97;;
16468;SDS011;8345;50.902;6.956;2022-11-20T00:53:57;13.27;;;11.77;;
16468;SDS011;8345;50.902;6.956;2022-11-20T00:56:27;13.27;;;11.77;;
16468;SDS011;8345;50.902;6.956;2022-11-20T00:58:54;13.90;;;12.00;;
16468;SDS011;8345;50.902;6.956;2022-11-20T01:01:23;15.10;;;12.53;;
16468;SDS011;8345;50.902;6.956;2022-11-20T01:03:51;15.30;;;12.50;;
16468;SDS011;8345;50.902;6.956;2022-11-20T01:06:21;14.13;;;11.70;;
16468;SDS011;8345;50.902;6.956;2022-11-20T01:08:49;13.90;;;11.50;;
16468;SDS011;8345;50.902;6.956;2022-11-20T01:11:17;12.70;;;11.30;;
16468;SDS011;8345;50.902;6.956;2022-11-20T01:13:45;12.93;;;11.33;;
16468;SDS011;8345;50.902;6.956;2022-11-20T01:16:14;15.23;;;12.57;;
16468;SDS011;8345;50.902;6.956;2022-11-20T01:18:42;15.57;;;12.60;;
16468;SDS011;8345;50.902;6.956;2022-11-20T01:21:10;15.17;;;12.67;;
16468;SDS011;8345;50.902;6.956;2022-11-20T01:23:40;14.30;;;12.30;;
16468;SDS011;8345;50.902;6.956;2022-11-20T01:26:08;14.80;;;12.47;;
16468;SDS011;8345;50.902;6.956;2022-11-20T01:28:36;14.67;;;12.53;;
16468;SDS011;8345;50.902;6.956;2022-11-20T01:31:10;14.20;;;12.70;;
16468;SDS011;8345;50.902;6.956;2022-11-20T01:33:38;14.20;;;12.57;;
16468;SDS011;8345;50.902;6.956;2022-11-20T01:36:05;14.83;;;12.97;;
16468;SDS011;8345;50.902;6.956;2022-11-20T01:38:33;13.90;;;11.30;;
16468;SDS011;8345;50.902;6.956;2022-11-20T01:41:01;14.97;;;12.27;;
16468;SDS011;8345;50.902;6.956;2022-11-20T01:43:29;13.93;;;11.97;;
16468;SDS011;8345;50.902;6.956;2022-11-20T01:45:59;14.23;;;12.23;;
16468;SDS011;8345;50.902;6.956;2022-11-20T01:48:28;14.60;;;11.83;;
16468;SDS011;8345;50.902;6.956;2022-11-20T01:50:57;13.67;;;11.40;;
16468;SDS011;8345;50.902;6.956;2022-11-20T01:53:25;14.83;;;12.97;;
16468;SDS011;8345;50.902;6.956;2022-11-20T01:55:55;14.47;;;12.07;;
16468;SDS011;8345;50.902;6.956;2022-11-20T01:58:25;13.93;;;12.43;;
16468;SDS011;8345;50.902;6.956;2022-11-20T02:00:54;15.03;;;12.47;;
16468;SDS011;8345;50.902;6.956;2022-11-20T02:03:21;13.73;;;12.07;;
16468;SDS011;8345;50.902;6.956;2022-11-20T02:05:49;14.63;;;12.37;;
16468;SDS011;8345;50.902;6.956;2022-11-20T02:08:18;14.30;;;11.23;;
16468;SDS011;8345;50.902;6.956;2022-11-20T02:10:46;13.17;;;11.70;;
16468;SDS011;8345;50.902;6.956;2022-11-20T02:13:13;13.90;;;12.27;;
16468;SDS011;8345;50.902;6.956;2022-11-20T02:15:59;13.27;;;11.33;;
16468;SDS011;8345;50.902;6.956;2022-11-20T02:18:27;12.93;;;11.37;;
16468;SDS011;8345;50.902;6.956;2022-11-20T02:20:55;13.67;;;11.53;;
16468;SDS011;8345;50.902;6.956;2022-11-20T02:23:26;13.60;;;11.83;;
16468;SDS011;8345;50.902;6.956;2022-11-20T02:25:57;14.53;;;11.87;;
16468;SDS011;8345;50.902;6.956;2022-11-20T02:28:25;15.17;;;12.30;;
16468;SDS011;8345;50.902;6.956;2022-11-20T02:30:52;14.70;;;12.67;;
16468;SDS011;8345;50.902;6.956;2022-11-20T02:33:19;13.63;;;11.93;;
16468;SDS011;8345;50.902;6.956;2022-11-20T02:35:46;14.83;;;12.63;;
16468;SDS011;8345;50.902;6.956;2022-11-20T02:38:14;14.90;;;11.87;;
16468;SDS011;8345;50.902;6.956;2022-11-20T02:40:41;14.07;;;12.13;;
16468;SDS011;8345;50.902;6.956;2022-11-20T02:43:10;14.47;;;12.40;;
16468;SDS011;8345;50.902;6.956;2022-11-20T02:45:37;13.93;;;12.27;;
16468;SDS011;8345;50.902;6.956;2022-11-20T02:48:05;13.73;;;12.20;;
16468;SDS011;8345;50.902;6.956;2022-11-20T02:50:35;13.17;;;11.77;;
16468;SDS011;8345;50.902;6.956;2022-11-20T02:53:03;20.53;;;12.63;;
16468;SDS011;8345;50.902;6.956;2022-11-20T02:55:30;14.33;;;12.23;;
16468;SDS011;8345;50.902;6.956;2022-11-20T02:57:57;13.23;;;10.97;;
16468;SDS011;8345;50.902;6.956;2022-11-20T03:00:26;14.40;;;11.63;;
16468;SDS011;8345;50.902;6.956;2022-11-20T03:02:53;13.00;;;11.70;;
16468;SDS011;8345;50.902;6.956;2022-11-20T03:05:20;13.37;;;11.97;;
16468;SDS011;8345;50.902;6.956;2022-11-20T03:07:47;14.17;;;11.57;;
16468;SDS011;8345;50.902;6.956;2022-11-20T03:10:15;13.23;;;11.77;;
16468;SDS011;8345;50.902;6.956;2022-11-20T03:12:42;14.43;;;12.37;;
16468;SDS011;8345;50.902;6.956;2022-11-20T03:15:10;12.80;;;11.50;;
16468;SDS011;8345;50.902;6.956;2022-11-20T03:17:38;13.50;;;11.73;;
16468;SDS011;8345;50.902;6.956;2022-11-20T03:20:06;12.37;;;10.63;;
16468;SDS011;8345;50.902;6.956;2022-11-20T03:22:34;12.40;;;11.10;;
16468;SDS011;8345;50.902;6.956;2022-11-20T03:25:01;11.97;;;10.77;;
16468;SDS011;8345;50.902;6.956;2022-11-20T03:27:31;14.23;;;11.90;;
16468;SDS011;8345;50.902;6.956;2022-11-20T03:29:58;12.53;;;10.97;;
16468;SDS011;8345;50.902;6.956;2022-11-20T03:32:25;13.53;;;11.60;;
16468;SDS011;8345;50.902;6.956;2022-11-20T03:34:54;12.70;;;11.30;;
16468;SDS011;8345;50.902;6.956;2022-11-20T03:37:21;12.33;;;10.87;;
16468;SDS011;8345;50.902;6.956;2022-11-20T03:39:48;12.37;;;11.07;;
16468;SDS011;8345;50.902;6.956;2022-11-20T03:42:15;11.97;;;10.77;;
16468;SDS011;8345;50.902;6.956;2022-11-20T03:44:56;14.40;;;11.13;;
16468;SDS011;8345;50.902;6.956;2022-11-20T03:47:23;13.30;;;11.63;;
16468;SDS011;8345;50.902;6.956;2022-11-20T03:49:51;13.47;;;11.90;;
16468;SDS011;8345;50.902;6.956;2022-11-20T03:52:19;13.30;;;11.80;;
16468;SDS011;8345;50.902;6.956;2022-11-20T03:54:47;13.40;;;11.87;;
16468;SDS011;8345;50.902;6.956;2022-11-20T03:57:14;12.33;;;10.80;;
16468;SDS011;8345;50.902;6.956;2022-11-20T03:59:41;15.40;;;12.07;;
16468;SDS011;8345;50.902;6.956;2022-11-20T04:02:08;14.67;;;11.87;;
16468;SDS011;8345;50.902;6.956;2022-11-20T04:04:35;13.33;;;11.80;;
16468;SDS011;8345;50.902;6.956;2022-11-20T04:07:03;13.57;;;12.17;;
16468;SDS011;8345;50.902;6.956;2022-11-20T04:09:31;13.97;;;12.43;;
16468;SDS011;8345;50.902;6.956;2022-11-20T04:11:58;13.20;;;11.53;;
16468;SDS011;8345;50.902;6.956;2022-11-20T04:14:25;12.67;;;11.37;;
16468;SDS011;8345;50.902;6.956;2022-11-20T04:16:53;13.03;;;11.63;;
16468;SDS011;8345;50.902;6.956;2022-11-20T04:19:20;14.83;;;12.60;;
16468;SDS011;8345;50.902;6.956;2022-11-20T04:21:47;13.70;;;12.30;;
16468;SDS011;8345;50.902;6.956;2022-11-20T04:24:14;14.47;;;12.67;;
16468;SDS011;8345;50.902;6.956;2022-11-20T04:26:43;15.30;;;13.00;;
16468;SDS011;8345;50.902;6.956;2022-11-20T04:29:10;14.90;;;12.60;;
16468;SDS011;8345;50.902;6.956;2022-11-20T04:31:38;16.73;;;13.63;;
16468;SDS011;8345;50.902;6.956;2022-11-20T04:34:06;16.03;;;13.80;;
16468;SDS011;8345;50.902;6.956;2022-11-20T04:36:33;17.73;;;14.13;;
16468;SDS011;8345;50.902;6.956;2022-11-20T04:39:01;15.20;;;13.30;;
16468;SDS011;8345;50.902;6.956;2022-11-20T04:41:29;16.57;;;13.80;;
16468;SDS011;8345;50.902;6.956;2022-11-20T04:43:58;14.60;;;12.70;;
16468;SDS011;8345;50.902;6.956;2022-11-20T04:46:28;16.80;;;13.27;;
16468;SDS011;8345;50.902;6.956;2022-11-20T04:48:56;16.17;;;13.20;;
16468;SDS011;8345;50.902;6.956;2022-11-20T04:51:23;16.83;;;13.80;;
16468;SDS011;8345;50.902;6.956;2022-11-20T04:53:50;14.17;;;12.40;;
16468;SDS011;8345;50.902;6.956;2022-11-20T04:56:18;16.10;;;13.13;;
16468;SDS011;8345;50.902;6.956;2022-11-20T04:58:45;13.93;;;12.17;;
16468;SDS011;8345;50.902;6.956;2022-11-20T05:01:14;14.73;;;12.07;;
16468;SDS011;8345;50.902;6.956;2022-11-20T05:03:43;14.87;;;12.43;;
16468;SDS011;8345;50.902;6.956;2022-11-20T05:06:11;14.77;;;12.53;;
16468;SDS011;8345;50.902;6.956;2022-11-20T05:08:38;18.10;;;14.50;;
16468;SDS011;8345;50.902;6.956;2022-11-20T05:11:06;19.73;;;15.53;;
16468;SDS011;8345;50.902;6.956;2022-11-20T05:13:34;20.53;;;15.37;;
16468;SDS011;8345;50.902;6.956;2022-11-20T05:16:01;19.00;;;15.10;;
16468;SDS011;8345;50.902;6.956;2022-11-20T05:18:30;18.67;;;15.50;;
16468;SDS011;8345;50.902;6.956;2022-11-20T05:20:58;20.50;;;15.33;;
16468;SDS011;8345;50.902;6.956;2022-11-20T05:23:26;20.40;;;15.53;;
16468;SDS011;8345;50.902;6.956;2022-11-20T05:25:54;19.70;;;15.87;;
16468;SDS011;8345;50.902;6.956;2022-11-20T05:28:21;20.50;;;15.63;;
16468;SDS011;8345;50.902;6.956;2022-11-20T05:30:49;19.53;;;15.87;;
16468;SDS011;8345;50.902;6.956;2022-11-20T05:33:16;21.80;;;15.93;;
16468;SDS011;8345;50.902;6.956;2022-11-20T05:35:45;19.47;;;15.30;;
16468;SDS011;8345;50.902;6.956;2022-11-20T05:38:13;20.33;;;15.87;;
16468;SDS011;8345;50.902;6.956;2022-11-20T05:40:40;20.57;;;16.00;;
16468;SDS011;8345;50.902;6.956;2022-11-20T05:43:07;20.40;;;15.83;;
16468;SDS011;8345;50.902;6.956;2022-11-20T05:45:34;19.53;;;16.63;;
16468;SDS011;8345;50.902;6.956;2022-11-20T05:48:02;23.30;;;17.03;;
16468;SDS011;8345;50.902;6.956;2022-11-20T05:50:29;21.80;;;16.00;;
16468;SDS011;8345;50.902;6.956;2022-11-20T05:52:58;20.90;;;16.00;;
16468;SDS011;8345;50.902;6.956;2022-11-20T05:55:26;20.80;;;16.10;;
16468;SDS011;8345;50.902;6.956;2022-11-20T05:57:53;20.07;;;16.00;;
16468;SDS011;8345;50.902;6.956;2022-11-20T06:00:20;20.40;;;15.70;;
16468;SDS011;8345;50.902;6.956;2022-11-20T06:02:48;19.23;;;15.80;;
16468;SDS011;8345;50.902;6.956;2022-11-20T06:05:15;20.80;;;16.43;;
16468;SDS011;8345;50.902;6.956;2022-11-20T06:07:42;22.60;;;16.70;;
16468;SDS011;8345;50.902;6.956;2022-11-20T06:10:11;21.13;;;16.30;;
16468;SDS011;8345;50.902;6.956;2022-11-20T06:12:38;21.90;;;16.63;;
16468;SDS011;8345;50.902;6.956;2022-11-20T06:15:05;23.30;;;17.83;;
16468;SDS011;8345;50.902;6.956;2022-11-20T06:17:33;23.97;;;17.50;;
16468;SDS011;8345;50.902;6.956;2022-11-20T06:20:00;21.40;;;16.20;;
16468;SDS011;8345;50.902;6.956;2022-11-20T06:22:27;22.03;;;17.30;;
16468;SDS011;8345;50.902;6.956;2022-11-20T06:24:54;22.83;;;17.10;;
16468;SDS011;8345;50.902;6.956;2022-11-20T06:27:23;23.03;;;17.57;;
16468;SDS011;8345;50.902;6.956;2022-11-20T06:29:51;22.50;;;16.33;;
16468;SDS011;8345;50.902;6.956;2022-11-20T06:32:18;27.17;;;18.20;;
16468;SDS011;8345;50.902;6.956;2022-11-20T06:34:45;22.37;;;17.27;;
16468;SDS011;8345;50.902;6.956;2022-11-20T06:37:12;18.93;;;15.50;;
16468;SDS011;8345;50.902;6.956;2022-11-20T06:39:39;18.27;;;15.13;;
16468;SDS011;8345;50.902;6.956;2022-11-20T06:42:07;18.43;;;14.37;;
16468;SDS011;8345;50.902;6.956;2022-11-20T06:44:35;16.67;;;13.23;;
16468;SDS011;8345;50.902;6.956;2022-11-20T06:47:02;16.00;;;13.57;;
16468;SDS011;8345;50.902;6.956;2022-11-20T06:49:29;16.13;;;13.40;;
16468;SDS011;8345;50.902;6.956;2022-11-20T06:51:57;17.70;;;13.87;;
16468;SDS011;8345;50.902;6.956;2022-11-20T06:54:24;16.93;;;13.63;;
16468;SDS011;8345;50.902;6.956;2022-11-20T06:56:51;15.83;;;13.33;;
16468;SDS011;8345;50.902;6.956;2022-11-20T06:59:18;15.97;;;13.23;;
16468;SDS011;8345;50.902;6.956;2022-11-20T07:01:47;18.45;;;16.65;;
16468;SDS011;8345;50.902;6.956;2022-11-20T07:04:14;16.27;;;14.10;;
16468;SDS011;8345;50.902;6.956;2022-11-20T07:06:42;17.13;;;13.70;;
16468;SDS011;8345;50.902;6.956;2022-11-20T07:09:09;15.10;;;13.47;;
16468;SDS011;8345;50.902;6.956;2022-11-20T07:11:36;16.33;;;13.70;;
16468;SDS011;8345;50.902;6.956;2022-11-20T07:14:03;16.50;;;13.53;;
16468;SDS011;8345;50.902;6.956;2022-11-20T07:16:31;17.67;;;13.60;;
16468;SDS011;8345;50.902;6.956;2022-11-20T07:18:59;16.63;;;14.23;;
16468;SDS011;8345;50.902;6.956;2022-11-20T07:21:26;16.53;;;14.07;;
16468;SDS011;8345;50.902;6.956;2022-11-20T07:23:54;16.10;;;14.27;;
16468;SDS011;8345;50.902;6.956;2022-11-20T07:26:21;16.67;;;13.83;;
16468;SDS011;8345;50.902;6.956;2022-11-20T07:28:48;15.80;;;13.10;;
16468;SDS011;8345;50.902;6.956;2022-11-20T07:31:15;15.73;;;13.73;;
16468;SDS011;8345;50.902;6.956;2022-11-20T07:33:42;16.33;;;13.57;;
16468;SDS011;8345;50.902;6.956;2022-11-20T07:36:11;14.70;;;13.10;;
16468;SDS011;8345;50.902;6.956;2022-11-20T07:38:38;16.07;;;13.97;;
16468;SDS011;8345;50.902;6.956;2022-11-20T07:41:05;16.40;;;14.20;;
16468;SDS011;8345;50.902;6.956;2022-11-20T07:43:32;16.17;;;13.90;;
16468;SDS011;8345;50.902;6.956;2022-11-20T07:46:00;16.97;;;14.17;;
16468;SDS011;8345;50.902;6.956;2022-11-20T07:48:28;18.17;;;14.40;;
16468;SDS011;8345;50.902;6.956;2022-11-20T07:50:56;16.47;;;13.40;;
16468;SDS011;8345;50.902;6.956;2022-11-20T07:53:25;16.20;;;14.40;;
16468;SDS011;8345;50.902;6.956;2022-11-20T07:55:52;16.43;;;13.87;;
16468;SDS011;8345;50.902;6.956;2022-11-20T07:58:19;16.30;;;13.30;;
16468;SDS011;8345;50.902;6.956;2022-11-20T08:00:46;16.60;;;13.90;;
16468;SDS011;8345;50.902;6.956;2022-11-20T08:03:14;17.40;;;14.40;;
16468;SDS011;8345;50.902;6.956;2022-11-20T08:05:41;17.60;;;14.27;;
16468;SDS011;8345;50.902;6.956;2022-11-20T08:08:08;16.10;;;13.90;;
16468;SDS011;8345;50.902;6.956;2022-11-20T08:10:37;16.57;;;13.90;;
16468;SDS011;8345;50.902;6.956;2022-11-20T08:13:04;16.73;;;14.90;;
16468;SDS011;8345;50.902;6.956;2022-11-20T08:15:49;16.97;;;14.23;;
16468;SDS011;8345;50.902;6.956;2022-11-20T08:18:17;16.33;;;14.50;;
16468;SDS011;8345;50.902;6.956;2022-11-20T08:20:44;17.13;;;14.47;;
16468;SDS011;8345;50.902;6.956;2022-11-20T08:23:11;16.80;;;14.23;;
16468;SDS011;8345;50.902;6.956;2022-11-20T08:25:40;18.73;;;15.57;;
16468;SDS011;8345;50.902;6.956;2022-11-20T08:28:08;15.80;;;13.53;;
16468;SDS011;8345;50.902;6.956;2022-11-20T08:30:36;18.70;;;15.03;;
16468;SDS011;8345;50.902;6.956;2022-11-20T08:33:04;19.10;;;15.90;;
16468;SDS011;8345;50.902;6.956;2022-11-20T08:35:33;19.87;;;15.30;;
16468;SDS011;8345;50.902;6.956;2022-11-20T08:38:01;18.67;;;15.10;;
16468;SDS011;8345;50.902;6.956;2022-11-20T08:40:28;18.20;;;15.07;;
16468;SDS011;8345;50.902;6.956;2022-11-20T08:42:57;18.33;;;14.67;;
16468;SDS011;8345;50.902;6.956;2022-11-20T08:45:35;17.13;;;15.17;;
16468;SDS011;8345;50.902;6.956;2022-11-20T08:48:05;18.03;;;14.77;;
16468;SDS011;8345;50.902;6.956;2022-11-20T08:50:33;19.50;;;15.80;;
16468;SDS011;8345;50.902;6.956;2022-11-20T08:53:06;19.63;;;16.23;;
16468;SDS011;8345;50.902;6.956;2022-11-20T08:55:40;21.27;;;16.67;;
16468;SDS011;8345;50.902;6.956;2022-11-20T08:58:10;19.43;;;15.27;;
16468;SDS011;8345;50.902;6.956;2022-11-20T09:00:37;20.07;;;16.00;;
16468;SDS011;8345;50.902;6.956;2022-11-20T09:03:05;18.33;;;15.10;;
16468;SDS011;8345;50.902;6.956;2022-11-20T09:05:33;22.53;;;17.03;;
16468;SDS011;8345;50.902;6.956;2022-11-20T09:08:00;20.43;;;15.53;;
16468;SDS011;8345;50.902;6.956;2022-11-20T09:10:30;18.70;;;15.67;;
16468;SDS011;8345;50.902;6.956;2022-11-20T09:13:01;20.00;;;16.57;;
16468;SDS011;8345;50.902;6.956;2022-11-20T09:15:32;19.07;;;16.83;;
16468;SDS011;8345;50.902;6.956;2022-11-20T09:18:04;19.90;;;15.40;;
16468;SDS011;8345;50.902;6.956;2022-11-20T09:20:31;18.33;;;15.07;;
16468;SDS011;8345;50.902;6.956;2022-11-20T09:22:58;17.57;;;14.20;;
16468;SDS011;8345;50.902;6.956;2022-11-20T09:25:27;17.43;;;14.03;;
16468;SDS011;8345;50.902;6.956;2022-11-20T09:27:58;18.37;;;15.23;;
16468;SDS011;8345;50.902;6.956;2022-11-20T09:30:30;20.07;;;15.50;;
16468;SDS011;8345;50.902;6.956;2022-11-20T09:32:58;16.83;;;14.97;;
16468;SDS011;8345;50.902;6.956;2022-11-20T09:35:25;18.73;;;14.67;;
16468;SDS011;8345;50.902;6.956;2022-11-20T09:37:52;18.33;;;15.40;;
16468;SDS011;8345;50.902;6.956;2022-11-20T09:40:20;17.53;;;14.97;;
16468;SDS011;8345;50.902;6.956;2022-11-20T09:42:47;18.80;;;15.67;;
16468;SDS011;8345;50.902;6.956;2022-11-20T09:45:21;20.07;;;16.07;;
16468;SDS011;8345;50.902;6.956;2022-11-20T09:47:56;18.57;;;16.17;;
16468;SDS011;8345;50.902;6.956;2022-11-20T09:50:30;21.00;;;16.60;;
16468;SDS011;8345;50.902;6.956;2022-11-20T09:53:02;18.80;;;15.97;;
16468;SDS011;8345;50.902;6.956;2022-11-20T09:55:31;20.93;;;16.47;;
16468;SDS011;8345;50.902;6.956;2022-11-20T09:57:58;18.73;;;16.47;;
16468;SDS011;8345;50.902;6.956;2022-11-20T10:00:26;20.77;;;16.83;;
16468;SDS011;8345;50.902;6.956;2022-11-20T10:02:58;21.87;;;16.67;;
16468;SDS011;8345;50.902;6.956;2022-11-20T10:05:27;20.73;;;17.27;;
16468;SDS011;8345;50.902;6.956;2022-11-20T10:07:59;18.07;;;15.20;;
16468;SDS011;8345;50.902;6.956;2022-11-20T10:10:30;20.73;;;16.60;;
16468;SDS011;8345;50.902;6.956;2022-11-20T10:13:02;20.93;;;16.40;;
16468;SDS011;8345;50.902;6.956;2022-11-20T10:15:33;21.70;;;16.50;;
16468;SDS011;8345;50.902;6.956;2022-11-20T10:18:05;19.47;;;16.70;;
16468;SDS011;8345;50.902;6.956;2022-11-20T10:20:37;21.30;;;16.73;;
16468;SDS011;8345;50.902;6.956;2022-11-20T10:23:21;20.23;;;16.90;;
16468;SDS011;8345;50.902;6.956;2022-11-20T10:25:54;19.70;;;17.03;;
16468;SDS011;8345;50.902;6.956;2022-11-20T10:28:28;21.87;;;17.70;;
16468;SDS011;8345;50.902;6.956;2022-11-20T10:30:59;22.27;;;17.93;;
16468;SDS011;8345;50.902;6.956;2022-11-20T10:33:29;20.17;;;16.90;;
16468;SDS011;8345;50.902;6.956;2022-11-20T10:36:04;20.10;;;16.23;;
16468;SDS011;8345;50.902;6.956;2022-11-20T10:38:34;20.10;;;16.90;;
16468;SDS011;8345;50.902;6.956;2022-11-20T10:41:06;21.07;;;17.00;;
16468;SDS011;8345;50.902;6.956;2022-11-20T10:43:54;20.40;;;16.27;;
16468;SDS011;8345;50.902;6.956;2022-11-20T10:46:24;19.83;;;16.87;;
16468;SDS011;8345;50.902;6.956;2022-11-20T10:48:53;25.40;;;17.87;;
16468;SDS011;8345;50.902;6.956;2022-11-20T10:51:28;21.07;;;17.73;;
16468;SDS011;8345;50.902;6.956;2022-11-20T10:54:03;23.57;;;17.20;;
16468;SDS011;8345;50.902;6.956;2022-11-20T10:56:38;22.17;;;16.77;;
16468;SDS011;8345;50.902;6.956;2022-11-20T10:59:24;20.90;;;16.63;;
16468;SDS011;8345;50.902;6.956;2022-11-20T11:01:55;24.10;;;17.07;;
16468;SDS011;8345;50.902;6.956;2022-11-20T11:04:28;19.60;;;16.13;;
16468;SDS011;8345;50.902;6.956;2022-11-20T11:06:57;19.77;;;16.40;;
16468;SDS011;8345;50.902;6.956;2022-11-20T11:09:36;23.30;;;17.30;;
16468;SDS011;8345;50.902;6.956;2022-11-20T11:12:05;18.60;;;15.87;;
16468;SDS011;8345;50.902;6.956;2022-11-20T11:14:41;21.10;;;16.70;;
16468;SDS011;8345;50.902;6.956;2022-11-20T11:17:17;21.77;;;17.57;;
16468;SDS011;8345;50.902;6.956;2022-11-20T11:19:46;20.13;;;16.67;;
16468;SDS011;8345;50.902;6.956;2022-11-20T11:22:23;22.00;;;18.33;;
16468;SDS011;8345;50.902;6.956;2022-11-20T11:24:51;21.53;;;16.70;;
16468;SDS011;8345;50.902;6.956;2022-11-20T11:27:19;19.40;;;16.83;;
16468;SDS011;8345;50.902;6.956;2022-11-20T11:29:46;22.00;;;17.33;;
16468;SDS011;8345;50.902;6.956;2022-11-20T11:32:14;20.60;;;17.00;;
16468;SDS011;8345;50.902;6.956;2022-11-20T11:34:42;21.53;;;17.37;;
16468;SDS011;8345;50.902;6.956;2022-11-20T11:37:13;21.87;;;17.30;;
16468;SDS011;8345;50.902;6.956;2022-11-20T11:39:42;22.60;;;18.03;;
16468;SDS011;8345;50.902;6.956;2022-11-20T11:42:10;21.93;;;17.40;;
16468;SDS011;8345;50.902;6.956;2022-11-20T11:44:43;20.17;;;17.43;;
16468;SDS011;8345;50.902;6.956;2022-11-20T11:47:29;20.20;;;16.70;;
16468;SDS011;8345;50.902;6.956;2022-11-20T11:50:00;19.43;;;16.40;;
16468;SDS011;8345;50.902;6.956;2022-11-20T11:52:29;22.23;;;16.70;;
16468;SDS011;8345;50.902;6.956;2022-11-20T11:54:58;19.73;;;15.70;;
16468;SDS011;8345;50.902;6.956;2022-11-20T11:57:29;20.30;;;16.77;;
16468;SDS011;8345;50.902;6.956;2022-11-20T12:00:02;20.70;;;16.07;;
16468;SDS011;8345;50.902;6.956;2022-11-20T12:02:35;20.17;;;16.27;;
16468;SDS011;8345;50.902;6.956;2022-11-20T12:05:05;20.73;;;16.47;;
16468;SDS011;8345;50.902;6.956;2022-11-20T12:07:39;18.80;;;15.93;;
16468;SDS011;8345;50.902;6.956;2022-11-20T12:10:13;19.27;;;16.17;;
16468;SDS011;8345;50.902;6.956;2022-11-20T12:12:42;22.00;;;16.30;;
16468;SDS011;8345;50.902;6.956;2022-11-20T12:15:11;21.10;;;16.00;;
16468;SDS011;8345;50.902;6.956;2022-11-20T12:17:39;18.30;;;15.23;;
16468;SDS011;8345;50.902;6.956;2022-11-20T12:20:10;22.33;;;17.33;;
16468;SDS011;8345;50.902;6.956;2022-11-20T12:22:41;20.20;;;16.33;;
16468;SDS011;8345;50.902;6.956;2022-11-20T12:25:12;21.30;;;16.00;;
16468;SDS011;8345;50.902;6.956;2022-11-20T12:27:47;20.63;;;16.17;;
16468;SDS011;8345;50.902;6.956;2022-11-20T12:30:19;19.10;;;15.57;;
16468;SDS011;8345;50.902;6.956;2022-11-20T12:33:00;20.33;;;16.20;;
16468;SDS011;8345;50.902;6.956;2022-11-20T12:35:32;19.30;;;15.37;;
16468;SDS011;8345;50.902;6.956;2022-11-20T12:38:08;17.87;;;14.97;;
16468;SDS011;8345;50.902;6.956;2022-11-20T12:40:43;19.40;;;15.57;;
16468;SDS011;8345;50.902;6.956;2022-11-20T12:43:14;18.60;;;15.37;;
16468;SDS011;8345;50.902;6.956;2022-11-20T12:46:08;18.87;;;15.10;;
16468;SDS011;8345;50.902;6.956;2022-11-20T12:48:42;19.97;;;15.53;;
16468;SDS011;8345;50.902;6.956;2022-11-20T12:51:14;22.33;;;16.67;;
16468;SDS011;8345;50.902;6.956;2022-11-20T12:53:48;20.87;;;16.40;;
16468;SDS011;8345;50.902;6.956;2022-11-20T12:56:20;20.53;;;16.00;;
16468;SDS011;8345;50.902;6.956;2022-11-20T12:58:50;19.53;;;16.27;;
16468;SDS011;8345;50.902;6.956;2022-11-20T13:01:21;22.20;;;15.97;;
16468;SDS011;8345;50.902;6.956;2022-11-20T13:04:08;19.10;;;14.87;;
16468;SDS011;8345;50.902;6.956;2022-11-20T13:06:39;19.83;;;16.37;;
16468;SDS011;8345;50.902;6.956;2022-11-20T13:09:09;21.97;;;16.73;;
16468;SDS011;8345;50.902;6.956;2022-11-20T13:11:39;19.23;;;16.13;;
16468;SDS011;8345;50.902;6.956;2022-11-20T13:14:11;21.43;;;15.70;;
16468;SDS011;8345;50.902;6.956;2022-11-20T13:16:41;20.37;;;16.17;;
16468;SDS011;8345;50.902;6.956;2022-11-20T13:19:13;19.90;;;16.27;;
16468;SDS011;8345;50.902;6.956;2022-11-20T13:21:42;19.17;;;15.10;;
16468;SDS011;8345;50.902;6.956;2022-11-20T13:24:21;20.50;;;16.43;;
16468;SDS011;8345;50.902;6.956;2022-11-20T13:26:59;19.17;;;16.10;;
16468;SDS011;8345;50.902;6.956;2022-11-20T13:29:26;20.20;;;15.83;;
16468;SDS011;8345;50.902;6.956;2022-11-20T13:32:02;20.27;;;16.40;;
16468;SDS011;8345;50.902;6.956;2022-11-20T13:34:30;19.00;;;16.03;;
16468;SDS011;8345;50.902;6.956;2022-11-20T13:36:58;20.87;;;15.30;;
16468;SDS011;8345;50.902;6.956;2022-11-20T13:39:30;20.70;;;15.83;;
16468;SDS011;8345;50.902;6.956;2022-11-20T13:41:58;18.47;;;15.57;;
16468;SDS011;8345;50.902;6.956;2022-11-20T13:44:27;18.50;;;15.70;;
16468;SDS011;8345;50.902;6.956;2022-11-20T13:46:55;17.80;;;15.10;;
16468;SDS011;8345;50.902;6.956;2022-11-20T13:49:24;19.80;;;16.20;;
16468;SDS011;8345;50.902;6.956;2022-11-20T13:51:54;20.30;;;16.23;;
16468;SDS011;8345;50.902;6.956;2022-11-20T13:57:33;19.40;;;16.03;;
16468;SDS011;8345;50.902;6.956;2022-11-20T14:00:08;18.97;;;15.43;;
16468;SDS011;8345;50.902;6.956;2022-11-20T14:02:37;21.00;;;15.80;;
16468;SDS011;8345;50.902;6.956;2022-11-20T14:05:04;21.60;;;14.93;;
16468;SDS011;8345;50.902;6.956;2022-11-20T14:07:34;18.57;;;15.77;;
16468;SDS011;8345;50.902;6.956;2022-11-20T14:10:02;19.60;;;14.90;;
16468;SDS011;8345;50.902;6.956;2022-11-20T14:12:30;19.63;;;16.60;;
16468;SDS011;8345;50.902;6.956;2022-11-20T14:14:59;20.33;;;16.10;;
16468;SDS011;8345;50.902;6.956;2022-11-20T14:17:30;20.10;;;15.83;;
16468;SDS011;8345;50.902;6.956;2022-11-20T14:19:58;20.00;;;14.83;;
16468;SDS011;8345;50.902;6.956;2022-11-20T14:22:27;20.33;;;15.50;;
16468;SDS011;8345;50.902;6.956;2022-11-20T14:25:01;18.40;;;15.50;;
16468;SDS011;8345;50.902;6.956;2022-11-20T14:27:29;21.60;;;16.13;;
16468;SDS011;8345;50.902;6.956;2022-11-20T14:30:01;19.23;;;15.60;;
16468;SDS011;8345;50.902;6.956;2022-11-20T14:32:29;19.83;;;15.73;;
16468;SDS011;8345;50.902;6.956;2022-11-20T14:34:58;19.50;;;15.83;;
16468;SDS011;8345;50.902;6.956;2022-11-20T14:37:27;18.10;;;15.53;;
16468;SDS011;8345;50.902;6.956;2022-11-20T14:39:55;17.57;;;14.40;;
16468;SDS011;8345;50.902;6.956;2022-11-20T14:42:24;20.73;;;15.70;;
16468;SDS011;8345;50.902;6.956;2022-11-20T14:44:52;17.03;;;15.17;;
16468;SDS011;8345;50.902;6.956;2022-11-20T14:47:23;20.03;;;15.53;;
16468;SDS011;8345;50.902;6.956;2022-11-20T14:49:51;18.40;;;14.73;;